Time;durP1;ratioP1;P1;durP2;ratioP2;P2;SDS_P1;SDS_P2;PMS_P1;PMS_P2;Temp;Humidity;BMP_temperature;BMP_pressure;BME280_temperature;BME280_humidity;BME280_pressure;Samples;Min_cycle;Max_cycle;Signal;HPM_P1;HPM_P2
2022/08/31 00:03:53;;;;;;;11.02;9.60;;;;;;;;;;5054203;28;20083;-65
2022/08/31 00:06:20;;;;;;;13.15;9.95;;;;;;;;;;5053912;28;20135;-65
2022/08/31 00:08:46;;;;;;;11.52;10.35;;;;;;;;;;5036134;28;20025;-65
2022/08/31 00:11:13;;;;;;;10.90;9.80;;;;;;;;;;5053778;28;20032;-65
2022/08/31 00:13:40;;;;;;;11.07;10.07;;;;;;;;;;5059517;28;20024;-65
2022/08/31 00:16:06;;;;;;;10.80;9.70;;;;;;;;;;5073888;28;20446;-65
2022/08/31 00:18:32;;;;;;;13.23;11.15;;;;;;;;;;5073892;28;20025;-65
2022/08/31 00:20:59;;;;;;;11.70;10.05;;;;;;;;;;5073644;28;20059;-65
2022/08/31 00:23:25;;;;;;;10.68;9.30;;;;;;;;;;5073774;28;20542;-65
2022/08/31 00:25:51;;;;;;;11.95;10.75;;;;;;;;;;5055950;28;20368;-65
2022/08/31 00:28:17;;;;;;;11.43;10.23;;;;;;;;;;5055630;28;20020;-65
2022/08/31 00:30:44;;;;;;;12.57;10.10;;;;;;;;;;5073304;28;20032;-65
2022/08/31 00:33:10;;;;;;;14.02;11.40;;;;;;;;;;5073414;28;20395;-65
2022/08/31 00:35:40;;;;;;;13.50;11.07;;;22.50;80.90;;;;;;5055421;28;20017;-65
2022/08/31 00:38:06;;;;;;;13.63;11.27;;;;;;;;;;5072893;28;20106;-65
2022/08/31 00:40:32;;;;;;;13.40;10.57;;;;;;;;;;5073262;28;20478;-65
2022/08/31 00:42:59;;;;;;;13.30;11.95;;;;;;;;;;5073256;28;20029;-65
2022/08/31 00:45:25;;;;;;;13.43;11.73;;;;;;;;;;5073261;28;20033;-65
2022/08/31 00:47:51;;;;;;;15.23;12.10;;;;;;;;;;5055164;28;20082;-65
2022/08/31 00:50:17;;;;;;;16.92;13.13;;;;;;;;;;5066462;28;20060;-65
2022/08/31 00:52:50;;;;;;;19.15;15.88;;;;;;;;;;5035030;28;20076;-65
2022/08/31 00:55:18;;;;;;;25.27;14.60;;;;;;;;;;5053091;28;20025;-64
2022/08/31 00:57:47;;;;;;;15.18;13.15;;;;;;;;;;5058115;28;20023;-64
2022/08/31 01:00:15;;;;;;;19.20;14.57;;;;;;;;;;5072642;28;20554;-64
2022/08/31 01:02:41;;;;;;;17.23;14.38;;;;;;;;;;5072615;28;20387;-65
2022/08/31 01:05:08;;;;;;;18.23;14.68;;;;;;;;;;5054959;28;20060;-65
2022/08/31 01:07:34;;;;;;;17.48;14.73;;;;;;;;;;5072712;28;20111;-65
2022/08/31 01:10:00;;;;;;;19.93;15.40;;;;;;;;;;5072798;28;20055;-64
2022/08/31 01:12:27;;;;;;;16.75;14.13;;;;;;;;;;5067976;28;20025;-65
2022/08/31 01:14:53;;;;;;;16.40;14.68;;;;;;;;;;5069637;28;20028;-65
2022/08/31 01:17:20;;;;;;;17.40;15.10;;;;;;;;;;5054178;28;20017;-64
2022/08/31 01:19:53;;;;;;;17.90;14.75;;;;;;;;;;5072432;28;20051;-65
2022/08/31 01:22:28;;;;;;;16.95;13.98;;;;;;;;;;5071814;28;20394;-64
2022/08/31 01:24:54;;;;;;;18.65;16.33;;;;;;;;;;5072124;28;20394;-65
2022/08/31 01:27:25;;;;;;;23.70;16.05;;;;;;;;;;5053550;28;20020;-64
2022/08/31 01:29:51;;;;;;;21.13;15.65;;;;;;;;;;5071924;28;20036;-64
2022/08/31 01:32:17;;;;;;;19.48;15.35;;;;;;;;;;5071565;28;20025;-64
2022/08/31 01:34:43;;;;;;;17.67;15.80;;;;;;;;;;5072309;28;20036;-64
2022/08/31 01:37:09;;;;;;;17.13;15.07;;;;;;;;;;5053858;28;20516;-64
2022/08/31 01:39:35;;;;;;;19.17;16.38;;;;;;;;;;5072475;28;20020;-65
2022/08/31 01:42:01;;;;;;;17.47;15.53;;;;;;;;;;5071989;28;20020;-64
2022/08/31 01:44:28;;;;;;;17.67;15.70;;;;;;;;;;5072062;28;20525;-64
2022/08/31 01:46:54;;;;;;;19.83;15.55;;;;;;;;;;5071809;28;20032;-64
2022/08/31 01:49:21;;;;;;;17.95;16.15;;;;;;;;;;5071518;28;20491;-65
2022/08/31 01:51:48;;;;;;;23.02;17.67;;;;;;;;;;5071330;28;20217;-64
2022/08/31 01:54:14;;;;;;;20.42;16.92;;;;;;;;;;5053853;28;20025;-64
2022/08/31 01:56:42;;;;;;;21.90;17.13;;;;;;;;;;5071619;28;20033;-65
2022/08/31 01:59:09;;;;;;;19.67;17.58;;;;;;;;;;5053993;28;20115;-64
2022/08/31 02:01:37;;;;;;;20.63;17.30;;;;;;;;;;5071737;28;20016;-64
2022/08/31 02:04:04;;;;;;;18.80;16.85;;;;;;;;;;5071791;28;20036;-64
2022/08/31 02:06:30;;;;;;;22.95;18.60;;;;;;;;;;5071351;28;20024;-65
2022/08/31 02:08:56;;;;;;;19.55;16.23;;;;;;;;;;5072104;28;20032;-64
2022/08/31 02:11:22;;;;;;;21.30;17.53;;;;;;;;;;5071429;28;20129;-64
2022/08/31 02:13:48;;;;;;;19.42;17.25;;;;;;;;;;5071430;28;20371;-64
2022/08/31 02:16:14;;;;;;;18.30;16.23;;;;;;;;;;5053811;28;20029;-64
2022/08/31 02:18:40;;;;;;;18.45;16.50;;;;;;;;;;5071643;28;20033;-64
2022/08/31 02:21:06;;;;;;;18.83;16.83;;;;;;;;;;5071551;28;20141;-64
2022/08/31 02:23:32;;;;;;;19.40;17.07;;;;;;;;;;5071395;28;20032;-64
2022/08/31 02:25:59;;;;;;;17.90;16.10;;;;;;;;;;5071709;28;20036;-64
2022/08/31 02:28:25;;;;;;;24.75;20.10;;;;;;;;;;5070985;28;20024;-64
2022/08/31 02:30:51;;;;;;;22.03;17.80;;;;;;;;;;5071356;28;20032;-64
2022/08/31 02:33:17;;;;;;;21.15;16.65;;;;;;;;;;5070959;28;20332;-64
2022/08/31 02:35:43;;;;;;;19.30;16.77;;;;;;;;;;5071042;28;20025;-64
2022/08/31 02:38:10;;;;;;;19.87;16.93;;;;;;;;;;5070743;28;20077;-64
2022/08/31 02:40:37;;;;;;;21.27;16.75;;;;;;;;;;5052191;28;20115;-64
2022/08/31 02:43:08;;;;;;;18.02;16.23;;;;;;;;;;5071152;28;20033;-64
2022/08/31 02:45:35;;;;;;;20.30;17.23;;;;;;;;;;5071513;28;20495;-64
2022/08/31 02:48:01;;;;;;;20.65;16.30;;;;;;;;;;5071274;28;20040;-64
2022/08/31 02:50:27;;;;;;;22.08;18.05;;;;;;;;;;5070794;28;20511;-64
2022/08/31 02:52:55;;;;;;;19.40;16.92;;;;;;;;;;5071155;28;20032;-64
2022/08/31 02:55:21;;;;;;;20.52;18.40;;;;;;;;;;5053353;28;20042;-64
2022/08/31 02:57:48;;;;;;;22.75;17.27;;;;;;;;;;5070809;28;20406;-64
2022/08/31 03:00:14;;;;;;;22.10;17.00;;;;;;;;;;5070668;28;20024;-64
2022/08/31 03:02:40;;;;;;;21.00;18.17;;;;;;;;;;5074127;28;20025;-64
2022/08/31 03:05:07;;;;;;;20.10;17.83;;;;;;;;;;5057092;28;20642;-64
2022/08/31 03:07:33;;;;;;;22.23;17.85;;;;;;;;;;5075047;28;20020;-64
2022/08/31 03:10:01;;;;;;;21.70;19.42;;;;;;;;;;5057218;28;20058;-64
2022/08/31 03:12:27;;;;;;;24.15;19.90;;;;;;;;;;5073612;28;20111;-64
2022/08/31 03:14:53;;;;;;;22.67;19.70;;;;;;;;;;5074975;28;20017;-64
2022/08/31 03:17:19;;;;;;;23.97;19.57;;;;;;;;;;5070535;28;20025;-64
2022/08/31 03:19:45;;;;;;;21.93;19.50;;;;;;;;;;5064979;28;20105;-64
2022/08/31 03:22:13;;;;;;;24.30;21.07;;;;;;;;;;5055123;28;20029;-64
2022/08/31 03:24:40;;;;;;;22.60;20.17;;;;;;;;;;5073383;28;20028;-64
2022/08/31 03:27:06;;;;;;;20.63;18.30;;;;;;;;;;5056770;28;20119;-64
2022/08/31 03:29:32;;;;;;;21.85;19.52;;;;;;;;;;5074274;28;20394;-64
2022/08/31 03:31:58;;;;;;;23.80;19.90;;;;;;;;;;5056200;28;20032;-64
2022/08/31 03:34:24;;;;;;;23.15;20.70;;;;;;;;;;5074341;28;20067;-64
2022/08/31 03:36:50;;;;;;;22.55;20.17;;;;;;;;;;5073325;28;20033;-64
2022/08/31 03:39:16;;;;;;;23.53;20.37;;;;;;;;;;5073930;28;20025;-64
2022/08/31 03:41:42;;;;;;;24.53;20.40;;;;;;;;;;5074566;28;20020;-64
2022/08/31 03:44:08;;;;;;;22.30;19.92;;;;;;;;;;5073046;28;20036;-64
2022/08/31 03:46:34;;;;;;;23.93;21.17;;;;;;;;;;5073733;28;20028;-64
2022/08/31 03:49:01;;;;;;;23.70;21.13;;;;;;;;;;5055351;28;20033;-64
2022/08/31 03:51:27;;;;;;;24.27;20.85;;;;;;;;;;5074029;28;20078;-64
2022/08/31 03:53:53;;;;;;;21.35;19.05;;;;;;;;;;5074013;28;20024;-67
2022/08/31 03:56:19;;;;;;;23.70;20.57;;;;;;;;;;5072821;28;20567;-62
2022/08/31 03:58:45;;;;;;;26.00;22.60;;;22.40;82.80;;;;;;5073867;28;20028;-63
2022/08/31 04:01:12;;;;;;;23.20;20.58;;;22.10;81.10;;;;;;5049338;28;20271;-63
2022/08/31 04:03:38;;;;;;;;;;;22.10;81.60;;;;;;5063143;28;20037;-63
2022/08/31 04:06:11;;;;;;;25.27;21.17;;;22.00;93.20;;;;;;5054001;28;19911;-63
2022/08/31 04:08:38;;;;;;;25.10;21.80;;;22.30;80.50;;;;;;5054128;28;20025;-63
2022/08/31 04:11:13;;;;;;;24.35;21.75;;;21.80;92.30;;;;;;5053853;28;20033;-63
2022/08/31 04:13:40;;;;;;;23.00;20.70;;;;;;;;;;5052879;28;20028;-63
2022/08/31 04:16:08;;;;;;;24.45;21.60;;;22.30;92.20;;;;;;5053740;28;20025;-63
2022/08/31 04:18:38;;;;;;;23.67;21.27;;;22.40;93.00;;;;;;5053851;28;20021;-63
2022/08/31 04:21:14;;;;;;;25.02;22.35;;;22.30;92.80;;;;;;5053717;28;20025;-63
2022/08/31 04:23:40;;;;;;;28.73;22.77;;;;;;;;;;5053735;28;20029;-63
2022/08/31 04:26:14;;;;;;;25.63;22.25;;;22.40;80.10;;;;;;5053666;28;20154;-62
2022/08/31 04:28:40;;;;;;;25.52;22.77;;;;;;;;;;5053661;28;20032;-63
2022/08/31 04:31:07;;;;;;;26.77;23.17;;;;;;;;;;5053410;28;20426;-63
2022/08/31 04:33:36;;;;;;;26.10;22.65;;;22.60;92.70;;;;;;5035660;28;20029;-63
2022/08/31 04:36:14;;;;;;;28.42;22.52;;;23.00;92.70;;;;;;5053270;28;20391;-63
2022/08/31 04:38:42;;;;;;;25.90;23.10;;;22.60;92.50;;;;;;5053685;28;20021;-63
2022/08/31 04:41:11;;;;;;;24.50;21.90;;;22.50;85.20;;;;;;5053248;28;20025;-63
2022/08/31 04:43:38;;;;;;;27.65;22.63;;;22.70;92.30;;;;;;5035494;28;20021;-63
2022/08/31 04:46:06;;;;;;;27.00;21.80;;;22.70;79.10;;;;;;5053166;28;20116;-63
2022/08/31 04:48:32;;;;;;;25.50;22.40;;;22.30;92.10;;;;;;5053410;28;20025;-63
2022/08/31 04:51:16;;;;;;;24.33;21.77;;;22.70;88.50;;;;;;5053009;28;20056;-63
2022/08/31 04:53:42;;;;;;;26.90;22.90;;;22.80;92.10;;;;;;5053165;28;20025;-63
2022/08/31 04:56:14;;;;;;;25.35;21.42;;;22.70;78.90;;;;;;5053111;28;20032;-63
2022/08/31 04:58:51;;;;;;;25.67;22.27;;;22.60;92.10;;;;;;5053228;28;20021;-63
2022/08/31 05:01:20;;;;;;;25.63;21.35;;;22.80;92.00;;;;;;5052812;28;20028;-63
2022/08/31 05:03:49;;;;;;;29.50;20.98;;;22.40;91.90;;;;;;5052992;28;20060;-64
2022/08/31 05:06:17;;;;;;;26.70;21.80;;;;;;;;;;5034901;28;20048;-64
2022/08/31 05:08:43;;;;;;;27.95;21.00;;;;;;;;;;5034982;28;20025;-63
2022/08/31 05:11:14;;;;;;;23.92;21.42;;;;;;;;;;5052695;28;20109;-63
2022/08/31 05:13:40;;;;;;;25.20;21.00;;;;;;;;;;5052733;28;20017;-63
2022/08/31 05:16:09;;;;;;;23.80;21.25;;;;;;;;;;5052675;28;20029;-63
2022/08/31 05:18:36;;;;;;;25.42;22.55;;;;;;;;;;5052664;28;20096;-63
2022/08/31 05:21:16;;;;;;;26.95;23.10;;;;;;;;;;5052408;28;20109;-63
2022/08/31 05:23:44;;;;;;;25.70;21.92;;;23.00;91.80;;;;;;5052496;28;20118;-63
2022/08/31 05:26:17;;;;;;;26.08;22.23;;;22.80;91.80;;;;;;5052434;28;20113;-63
2022/08/31 05:28:43;;;;;;;25.33;20.95;;;;;;;;;;5034589;28;20517;-63
2022/08/31 05:31:09;;;;;;;24.55;21.42;;;;;;;;;;5034347;28;20491;-63
2022/08/31 05:33:35;;;;;;;22.77;20.40;;;;;;;;;;5052395;28;20488;-63
2022/08/31 05:36:02;;;;;;;25.57;21.50;;;22.90;78.60;;;;;;5052307;28;20082;-63
2022/08/31 05:38:27;;;;;;;;;;;22.90;79.10;;;;;;5053202;28;20532;-63
2022/08/31 05:40:55;;;;;;;23.70;19.17;;;23.20;88.10;;;;;;5052068;28;20404;-63
2022/08/31 05:43:21;;;;;;;27.95;19.27;;;;;;;;;;5034244;28;20052;-63
2022/08/31 05:45:47;;;;;;;21.55;18.52;;;;;;;;;;5034230;28;20110;-63
2022/08/31 05:48:14;;;;;;;26.63;18.90;;;;;;;;;;5052153;28;20032;-63
2022/08/31 05:50:40;;;;;;;22.33;17.20;;;;;;;;;;5051959;28;20259;-63
2022/08/31 05:53:06;;;;;;;23.67;15.50;;;;;;;;;;5052015;28;20506;-63
2022/08/31 05:55:32;;;;;;;19.35;15.00;;;;;;;;;;5051952;28;20025;-63
2022/08/31 05:57:59;;;;;;;17.77;14.70;;;;;;;;;;5051794;28;20033;-63
2022/08/31 06:00:25;;;;;;;16.75;13.30;;;;;;;;;;5051895;28;20100;-63
2022/08/31 06:02:51;;;;;;;14.63;13.10;;;;;;;;;;5051790;28;20086;-63
2022/08/31 06:05:18;;;;;;;14.27;12.43;;;;;;;;;;5051949;28;20063;-63
2022/08/31 06:07:46;;;;;;;14.32;11.60;;;;;;;;;;5051758;28;20025;-63
2022/08/31 06:10:13;;;;;;;15.98;10.25;;;;;;;;;;5051734;28;20099;-63
2022/08/31 06:12:41;;;;;;;12.27;10.27;;;;;;;;;;5051402;28;20024;-63
2022/08/31 06:15:08;;;;;;;12.38;9.93;;;;;;;;;;5033837;28;20028;-63
2022/08/31 06:17:35;;;;;;;11.93;9.90;;;;;;;;;;5051607;28;20048;-63
2022/08/31 06:20:01;;;;;;;13.80;10.02;;;;;;;;;;5051611;28;20223;-63
2022/08/31 06:22:28;;;;;;;11.30;9.50;;;;;;;;;;5051448;28;20021;-63
2022/08/31 06:24:54;;;;;;;9.88;8.82;;;;;;;;;;5051593;28;20037;-63
2022/08/31 06:27:20;;;;;;;10.88;8.80;;;;;;;;;;5051474;28;20033;-63
2022/08/31 06:29:48;;;;;;;10.10;9.10;;;;;;;;;;5050465;28;20497;-63
2022/08/31 06:32:14;;;;;;;11.73;7.97;;;;;;;;;;5049933;28;20399;-63
2022/08/31 06:34:41;;;;;;;9.07;7.43;;;;;;;;;;5051347;28;20074;-63
2022/08/31 06:37:09;;;;;;;9.85;7.38;;;;;;;;;;5050614;28;20120;-63
2022/08/31 06:39:35;;;;;;;8.75;6.63;;;;;;;;;;5051346;28;20028;-63
2022/08/31 06:42:02;;;;;;;8.32;6.25;;;;;;;;;;5051436;28;20442;-63
2022/08/31 06:44:28;;;;;;;6.28;5.68;;;;;;;;;;5051365;28;20025;-63
2022/08/31 06:46:55;;;;;;;10.27;6.68;;;24.00;73.40;;;;;;5051281;28;20029;-59
2022/08/31 06:49:21;;;;;;;10.93;6.63;;;23.70;97.50;;;;;;5051476;28;20025;-62
2022/08/31 06:51:48;;;;;;;11.52;6.35;;;24.20;97.40;;;;;;5051116;28;20032;-62
2022/08/31 06:54:16;;;;;;;6.55;5.50;;;24.70;73.90;;;;;;5033384;28;20025;-62
2022/08/31 06:56:42;;;;;;;5.43;4.05;;;;;;;;;;5051207;28;20043;-62
2022/08/31 06:59:08;;;;;;;8.13;4.10;;;24.10;99.70;;;;;;5051207;28;20411;-62
2022/08/31 07:01:35;;;;;;;5.43;4.53;;;24.30;78.10;;;;;;5033196;28;20074;-62
2022/08/31 07:04:03;;;;;;;6.35;4.63;;;24.40;71.50;;;;;;5051166;28;20834;-61
2022/08/31 07:06:40;;;;;;;4.60;3.92;;;;;;;;;;5051371;28;20036;-62
2022/08/31 07:09:08;;;;;;;4.85;4.32;;;;;;;;;;5049926;28;20032;-62
2022/08/31 07:11:36;;;;;;;38.45;5.43;;;;;;;;;;5050982;28;20326;-62
2022/08/31 07:14:03;;;;;;;19.88;5.05;;;;;;;;;;5051068;28;20031;-62
2022/08/31 07:16:29;;;;;;;23.80;5.22;;;;;;;;;;5051134;28;20033;-62
2022/08/31 07:18:57;;;;;;;6.60;3.75;;;;;;;;;;5049755;28;20052;-61
2022/08/31 07:21:27;;;;;;;7.40;4.38;;;;;;;;;;5050832;28;20515;-61
2022/08/31 07:23:54;;;;;;;5.65;3.75;;;;;;;;;;5051016;28;20029;-62
2022/08/31 07:26:24;;;;;;;4.30;3.90;;;;;;;;;;5050898;28;20029;-62
2022/08/31 07:28:51;;;;;;;8.48;3.88;;;;;;;;;;5049746;28;20561;-62
2022/08/31 07:31:18;;;;;;;4.70;3.90;;;;;;;;;;5050697;28;20020;-62
2022/08/31 07:33:45;;;;;;;6.60;4.10;;;;;;;;;;5050787;28;20537;-61
2022/08/31 07:36:13;;;;;;;4.47;4.05;;;;;;;;;;5050671;28;20025;-62
2022/08/31 07:44:10;;;;;;;5.53;4.10;;;;;;;;;;5051053;28;20506;-61
2022/08/31 07:46:37;;;;;;;4.50;3.60;;;;;;;;;;5050693;28;20079;-62
2022/08/31 07:49:07;;;;;;;4.72;3.35;;;;;;;;;;5052885;28;20032;-62
2022/08/31 07:51:33;;;;;;;4.70;3.53;;;;;;;;;;5054168;28;20040;-62
2022/08/31 07:53:59;;;;;;;7.73;3.70;;;;;;;;;;5054288;28;20033;-62
2022/08/31 07:56:25;;;;;;;4.17;3.17;;;;;;;;;;5054038;28;20080;-62
2022/08/31 07:58:51;;;;;;;3.57;3.27;;;;;;;;;;5052842;28;20255;-62
2022/08/31 08:01:18;;;;;;;7.80;3.70;;;;;;;;;;5054027;28;20252;-62
2022/08/31 08:03:44;;;;;;;5.97;3.10;;;;;;;;;;5054295;28;20251;-62
2022/08/31 08:06:11;;;;;;;4.33;3.57;;;;;;;;;;5054078;28;20025;-62
2022/08/31 08:08:37;;;;;;;;;;;;;;;;;;5054356;28;20483;-62
2022/08/31 08:11:03;;;;;;;4.72;3.72;;;;;;;;;;5053788;28;19905;-62
2022/08/31 08:13:31;;;;;;;9.82;3.58;;;;;;;;;;5053872;28;20021;-62
2022/08/31 08:15:57;;;;;;;5.32;3.40;;;;;;;;;;5053871;28;20053;-62
2022/08/31 08:18:23;;;;;;;7.80;3.50;;;;;;;;;;5052529;28;20021;-62
2022/08/31 08:20:51;;;;;;;3.20;2.90;;;;;;;;;;5053630;28;20626;-62
2022/08/31 08:23:18;;;;;;;5.22;3.45;;;;;;;;;;5053629;28;20757;-62
2022/08/31 08:25:45;;;;;;;3.15;2.72;;;;;;;;;;5053554;28;20021;-62
2022/08/31 08:28:16;;;;;;;6.55;3.03;;;;;;;;;;5053599;28;20472;-62
2022/08/31 08:30:45;;;;;;;7.90;3.50;;;;;;;;;;5053428;28;20025;-62
2022/08/31 08:33:12;;;;;;;6.30;3.20;;;;;;;;;;5052244;28;20032;-62
2022/08/31 08:35:39;;;;;;;4.78;3.45;;;;;;;;;;5053630;28;20033;-62
2022/08/31 08:38:05;;;;;;;6.55;3.30;;;;;;;;;;5093801;22;20067;-60
2022/08/31 08:40:41;;;;;;;5.00;3.53;;;;;;;;;;5073191;28;20021;-60
2022/08/31 08:43:09;;;;;;;4.68;2.75;;;;;;;;;;5073490;28;20021;-60
2022/08/31 08:45:35;;;;;;;3.30;2.95;;;;;;;;;;5073378;28;20025;-60
2022/08/31 08:48:10;;;;;;;2.83;2.30;;;;;;;;;;5073257;28;20025;-60
2022/08/31 08:50:38;;;;;;;5.95;3.00;;;;;;;;;;5073110;28;20100;-62
2022/08/31 08:53:07;;;;;;;3.17;2.88;;;;;;;;;;5073134;28;20192;-62
2022/08/31 08:55:35;;;;;;;3.95;3.30;;;;;;;;;;5073124;28;20482;-62
2022/08/31 08:58:04;;;;;;;3.90;3.28;;;;;;;;;;5073149;28;20112;-62
2022/08/31 09:00:32;;;;;;;4.30;3.90;;;;;;;;;;5054637;28;20100;-63
2022/08/31 09:03:05;;;;;;;6.65;3.80;;;;;;;;;;5055044;28;20032;-60
2022/08/31 09:05:50;;;;;;;4.30;3.90;;;;;;;;;;5054997;28;20103;-62
2022/08/31 09:08:22;;;;;;;5.32;3.83;;;;;;;;;;5072948;28;20028;-62
2022/08/31 09:10:51;;;;;;;4.90;4.40;;;;;;;;;;5072683;28;20025;-62
2022/08/31 09:13:17;;;;;;;5.03;3.65;;;;;;;;;;5072731;28;20024;-62
2022/08/31 09:16:07;;;;;;;6.00;4.27;;;;;;;;;;5072834;28;20108;-60
2022/08/31 09:18:52;;;;;;;5.80;3.88;;;;;;;;;;5072909;28;20024;-62
2022/08/31 09:21:28;;;;;;;6.47;3.92;;;;;;;;;;5072601;28;20029;-62
2022/08/31 09:24:05;;;;;;;5.40;3.88;;;;;;;;;;5072558;28;20033;-62
2022/08/31 09:26:45;;;;;;;5.65;4.75;;;;;;;;;;5072486;28;20565;-61
2022/08/31 09:29:20;;;;;;;5.78;4.10;;;;;;;;;;5072719;28;20390;-62
2022/08/31 09:31:45;;;;;;;7.18;3.70;;;;;;;;;;5072314;28;20036;-62
2022/08/31 09:34:27;;;;;;;6.03;3.90;;;;;;;;;;5072337;28;20024;-62
2022/08/31 09:37:13;;;;;;;7.28;4.28;;;;;;;;;;5072118;28;20029;-62
2022/08/31 09:39:40;;;;;;;7.68;5.32;;;;;;;;;;5072381;28;20025;-62
2022/08/31 09:42:32;;;;;;;4.70;4.30;;;;;;;;;;5072066;28;20025;-61
2022/08/31 09:45:00;;;;;;;4.15;3.75;;;;;;;;;;5069458;28;20067;-62
2022/08/31 09:47:36;;;;;;;6.20;4.43;;;;;;;;;;5072041;28;20486;-62
2022/08/31 09:50:10;;;;;;;4.83;3.70;;;;;;;;;;5072261;28;20078;-62
2022/08/31 09:55:24;;;;;;;6.05;4.70;;;;;;;;;;5072023;28;20559;-62
2022/08/31 09:57:53;;;;;;;7.28;4.53;;;;;;;;;;5054002;28;20073;-60
2022/08/31 10:00:33;;;;;;;11.75;4.63;;;;;;;;;;5072187;28;20372;-62
2022/08/31 10:03:08;;;;;;;5.88;4.78;;;;;;;;;;5071901;28;20016;-63
2022/08/31 10:05:43;;;;;;;7.15;5.40;;;;;;;;;;5053860;28;20033;-62
2022/08/31 10:08:14;;;;;;;9.27;5.15;;;;;;;;;;5071916;28;20024;-62
2022/08/31 10:10:42;;;;;;;6.57;4.65;;;;;;;;;;5070962;28;20111;-62
2022/08/31 10:13:36;;;;;;;5.80;5.20;;;;;;;;;;5071713;28;20024;-62
2022/08/31 10:16:15;;;;;;;12.00;5.78;;;;;;;;;;5069241;28;20037;-62
2022/08/31 10:18:46;;;;;;;9.65;4.80;;;;;;;;;;5042823;28;20032;-60
2022/08/31 10:21:14;;;;;;;6.10;5.03;;;;;;;;;;5071384;28;20110;-60
2022/08/31 10:23:52;;;;;;;7.20;6.50;;;;;;;;;;5070587;28;20438;-61
2022/08/31 10:26:30;;;;;;;7.95;6.75;;;;;;;;;;5071068;28;20035;-60
2022/08/31 10:28:58;;;;;;;9.63;7.18;;;;;;;;;;5052260;28;20180;-60
2022/08/31 10:31:30;;;;;;;9.07;7.78;;;;;;;;;;5071386;28;20218;-62
2022/08/31 10:36:46;;;;;;;8.02;6.47;;;;;;;;;;5071646;28;20047;-60
2022/08/31 10:39:24;;;;;;;10.20;7.55;;;;;;;;;;5067082;28;20033;-60
2022/08/31 10:41:50;;;;;;;;;;;;;;;;;;5072068;28;20032;-61
2022/08/31 10:44:25;;;;;;;7.97;6.35;;;;;;;;;;5071451;28;19911;-61
2022/08/31 10:46:57;;;;;;;12.13;7.65;;;;;;;;;;5071087;28;20031;-61
2022/08/31 10:49:24;;;;;;;9.15;7.68;;;;;;;;;;5053212;28;20545;-61
2022/08/31 10:52:01;;;;;;;14.23;7.93;;;;;;;;;;5071050;28;20024;-60
2022/08/31 10:54:32;;;;;;;7.60;6.70;;;;;;;;;;5059278;28;20558;-61
2022/08/31 10:57:18;;;;;;;10.45;7.68;;;;;;;;;;5070982;28;20025;-61
2022/08/31 10:59:44;;;;;;;10.70;7.03;;;;;;;;;;5068363;28;20043;-61
2022/08/31 11:02:29;;;;;;;7.88;5.47;;;;;;;;;;5052464;28;20087;-60
2022/08/31 11:04:57;;;;;;;6.65;4.95;;;;;;;;;;5070749;28;20024;-60
2022/08/31 11:07:24;;;;;;;8.50;4.82;;;;;;;;;;5070971;28;20406;-61
2022/08/31 11:09:58;;;;;;;10.13;5.70;;;;;;;;;;5056314;28;20487;-61
2022/08/31 11:12:32;;;;;;;8.40;5.47;;;;;;;;;;5050787;28;20055;-60
2022/08/31 11:14:59;;;;;;;6.70;5.03;;;;;;;;;;5033055;28;20106;-61
2022/08/31 11:17:34;;;;;;;8.75;4.53;;;;;;;;;;5050984;28;20060;-61
2022/08/31 11:20:05;;;;;;;5.93;5.30;;;;;;;;;;5049891;28;20372;-61
2022/08/31 11:22:35;;;;;;;6.95;5.10;;;;;;;;;;5062692;28;20027;-60
2022/08/31 11:25:06;;;;;;;6.70;5.75;;;;;;;;;;5054623;28;20043;-61
2022/08/31 11:27:32;;;;;;;5.55;4.68;;;;;;;;;;5054658;28;20116;-60
2022/08/31 11:30:02;;;;;;;4.80;4.30;;;;;;;;;;5037398;28;20108;-61
2022/08/31 11:32:41;;;;;;;4.53;4.10;;;;;;;;;;5067215;28;20028;-61
2022/08/31 11:35:09;;;;;;;12.90;4.28;;;;;;;;;;5070852;28;20029;-60
2022/08/31 11:37:57;;;;;;;9.38;4.50;;;;;;;;;;5035842;28;20395;-61
2022/08/31 11:40:42;;;;;;;5.90;4.90;;;;;;;;;;5053238;28;20352;-60
2022/08/31 11:43:30;;;;;;;7.22;4.60;;;;;;;;;;5053249;28;20136;-60
2022/08/31 11:46:00;;;;;;;5.72;5.03;;;;;;;;;;5054423;28;20395;-61
2022/08/31 11:48:47;;;;;;;7.28;5.38;;;;;;;;;;5054392;28;20175;-61
2022/08/31 11:51:31;;;;;;;10.33;6.03;;;;;;;;;;5052918;28;20106;-61
2022/08/31 11:54:00;;;;;;;8.75;5.80;;;;;;;;;;5052987;28;20029;-61
2022/08/31 11:56:37;;;;;;;6.20;5.35;;;;;;;;;;5053214;28;20029;-60
2022/08/31 11:59:18;;;;;;;5.70;5.10;;;;;;;;;;5066103;28;20056;-60
2022/08/31 12:01:44;;;;;;;6.20;5.45;;;;;;;;;;5055901;28;20403;-61
2022/08/31 12:04:29;;;;;;;7.45;5.38;;;;;;;;;;5073785;28;20107;-60
2022/08/31 12:06:57;;;;;;;9.35;6.43;;;;;;;;;;5069278;28;20475;-60
2022/08/31 12:09:35;;;;;;;8.20;6.20;;;;;;;;;;5056164;28;20119;-61
2022/08/31 12:12:12;;;;;;;9.07;5.13;;;;;;;;;;5053906;28;20033;-61
2022/08/31 12:14:41;;;;;;;10.35;5.07;;;;;;;;;;5070857;28;20437;-60
2022/08/31 12:17:08;;;;;;;6.70;5.80;;;;;;;;;;5073947;28;20033;-60
2022/08/31 12:25:27;;;;;;;5.68;4.55;;;;;;;;;;5056954;28;20089;-61
2022/08/31 12:28:06;;;;;;;8.65;5.05;;;;;;;;;;5073460;28;20107;-60
2022/08/31 12:30:32;;;;;;;5.20;4.40;;;;;;;;;;5073413;28;20028;-60
2022/08/31 12:33:04;;;;;;;5.75;4.50;;;;;;;;;;5073441;28;20032;-61
2022/08/31 12:35:31;;;;;;;6.00;4.68;;;;;;;;;;5072742;28;20078;-60
2022/08/31 12:37:59;;;;;;;5.40;4.72;;;;;;;;;;5073127;28;20059;-60
2022/08/31 12:40:26;;;;;;;4.50;4.10;;;;;;;;;;5073440;28;20032;-60
2022/08/31 12:42:58;;;;;;;9.90;4.35;;;;;;;;;;5072877;28;20044;-61
2022/08/31 12:45:33;;;;;;;4.43;4.00;;;;;;;;;;5073378;28;20497;-61
2022/08/31 12:48:04;;;;;;;6.93;5.00;;;;;;;;;;5035365;28;20025;-61
2022/08/31 12:50:47;;;;;;;5.93;5.22;;;;;;;;;;5053290;28;20036;-61
2022/08/31 12:53:31;;;;;;;6.97;5.38;;;;;;;;;;5064078;28;20352;-61
2022/08/31 12:56:14;;;;;;;7.93;5.07;;;;;;;;;;5072772;28;20024;-61
2022/08/31 12:58:40;;;;;;;6.32;4.63;;;;;;;;;;5072881;28;20044;-60
2022/08/31 13:01:08;;;;;;;9.55;5.65;;;;;;;;;;5073093;28;20059;-61
2022/08/31 13:03:34;;;;;;;8.43;4.90;;;;;;;;;;5072968;28;20043;-61
2022/08/31 13:06:07;;;;;;;12.10;4.72;;;;;;;;;;5073018;28;20483;-61
2022/08/31 13:08:38;;;;;;;8.10;4.40;;;;;;;;;;5072736;28;20021;-61
2022/08/31 13:11:14;;;;;;;4.82;4.32;;;;;;;;;;5072525;28;20033;-61
2022/08/31 13:13:40;;;;;;;6.50;4.35;;;;;;;;;;5072602;28;20103;-61
2022/08/31 13:16:07;;;;;;;6.43;5.10;;;;;;;;;;5072718;28;20036;-61
2022/08/31 13:18:33;;;;;;;7.40;4.95;;;;;;;;;;5073066;28;20021;-61
2022/08/31 13:21:09;;;;;;;;;;;;;;;;;;5072400;28;20036;-61
2022/08/31 13:23:37;;;;;;;11.77;4.85;;;;;;;;;;5071318;28;20003;-61
2022/08/31 13:26:26;;;;;;;4.72;4.25;;;32.40;71.80;;;;;;5068106;28;20041;-61
2022/08/31 13:28:59;;;;;;;7.13;4.18;;;;;;;;;;5071386;28;20384;-61
2022/08/31 13:31:28;;;;;;;8.90;3.90;;;32.80;63.30;;;;;;5068733;28;20111;-60
2022/08/31 13:34:01;;;;;;;7.93;4.82;;;33.90;46.90;;;;;;5071895;28;20047;-58
2022/08/31 13:36:33;;;;;;;7.68;4.32;;;;;;;;;;5058455;28;20085;-60
2022/08/31 13:39:05;;;;;;;5.15;4.40;;;;;;;;;;5072240;28;20067;-60
2022/08/31 13:41:36;;;;;;;5.28;4.78;;;;;;;;;;5053604;28;20031;-60
2022/08/31 13:44:07;;;;;;;5.07;4.00;;;33.30;68.40;;;;;;5052225;28;20025;-59
2022/08/31 13:46:58;;;;;;;8.02;3.90;;;;;;;;;;5059011;28;20491;-59
2022/08/31 13:49:34;;;;;;;6.15;3.95;;;;;;;;;;5072118;28;20035;-56
2022/08/31 13:52:14;;;;;;;4.07;3.60;;;;;;;;;;5051509;28;20123;-59
2022/08/31 13:54:40;;;;;;;4.88;4.38;;;;;;;;;;5071962;28;20025;-57
2022/08/31 13:57:06;;;;;;;;;;;;;;;;;;5072379;28;20032;-58
2022/08/31 13:59:34;;;;;;;5.45;4.15;;;;;;;;;;5072028;28;20406;-59
2022/08/31 14:02:06;;;;;;;5.28;3.72;;;;;;;;;;5071746;28;20033;-59
2022/08/31 14:04:42;;;;;;;5.85;3.35;;;;;;;;;;5071399;28;20032;-58
2022/08/31 14:07:15;;;;;;;6.82;3.72;;;37.70;67.80;;;;;;5053461;28;20033;-56
2022/08/31 14:09:43;;;;;;;8.02;4.18;;;39.30;68.60;;;;;;5071566;28;20498;-59
2022/08/31 14:12:19;;;;;;;9.18;4.93;;;40.20;40.30;;;;;;5052708;28;20033;-56
2022/08/31 14:14:45;;;;;;;4.90;3.40;;;;;;;;;;5043051;28;20104;-59
2022/08/31 14:17:15;;;;;;;4.25;3.67;;;40.10;61.80;;;;;;5065103;28;20505;-59
2022/08/31 14:19:42;;;;;;;6.20;3.30;;;41.60;62.30;;;;;;5054497;28;20449;-59
2022/08/31 14:22:28;;;;;;;4.80;3.35;;;40.90;60.90;;;;;;5071460;28;20044;-59
2022/08/31 14:24:55;;;;;;;;;;;41.30;35.70;;;;;;5054269;28;20052;-57
2022/08/31 14:27:24;;;;;;;5.70;4.07;;;42.00;34.70;;;;;;5071668;28;19904;-58
2022/08/31 14:29:50;;;;;;;3.85;3.20;;;42.20;33.80;;;;;;5070739;28;20024;-61
2022/08/31 14:32:17;;;;;;;3.40;3.10;;;;;;;;;;5063592;28;20420;-61
2022/08/31 14:34:47;;;;;;;5.57;3.13;;;;;;;;;;5071375;28;20082;-61
2022/08/31 14:37:21;;;;;;;6.57;3.67;;;;;;;;;;5101034;22;20048;-58
2022/08/31 14:40:00;;;;;;;12.63;3.88;;;;;;;;;;5091820;28;20039;-58
2022/08/31 14:42:28;;;;;;;3.35;2.83;;;;;;;;;;5090216;28;20103;-57
2022/08/31 14:44:57;;;;;;;3.20;2.70;;;;;;;;;;5084862;28;20031;-59
2022/08/31 14:47:27;;;;;;;3.50;2.83;;;;;;;;;;5078702;28;20020;-58
2022/08/31 14:49:57;;;;;;;3.40;3.10;;;;;;;;;;5092127;28;20024;-56